Time;durP1;ratioP1;P1;durP2;ratioP2;P2;SDS_P1;SDS_P2;PMS_P1;PMS_P2;Temp;Humidity;BMP_temperature;BMP_pressure;BME280_temperature;BME280_humidity;BME280_pressure;Samples;Min_cycle;Max_cycle;Signal;HPM_P1;HPM_P2
2021/08/29 00:02:11;;;;;;;5.90;5.18;;;14.40;97.00;;;;;;5008296;28;20223;-79
2021/08/29 00:04:38;;;;;;;6.30;5.65;;;14.40;97.30;;;;;;5019400;28;20207;-79
2021/08/29 00:07:06;;;;;;;8.75;6.43;;;14.40;97.40;;;;;;5019309;28;20309;-79
2021/08/29 00:09:33;;;;;;;7.40;5.88;;;14.30;97.60;;;;;;5015914;28;20207;-79
2021/08/29 00:12:01;;;;;;;6.68;6.03;;;14.30;98.40;;;;;;5020925;28;20699;-79
2021/08/29 00:14:28;;;;;;;8.48;6.93;;;14.30;98.00;;;;;;5021377;28;20563;-80
2021/08/29 00:16:55;;;;;;;6.25;5.68;;;14.30;98.50;;;;;;5022129;28;20267;-79
2021/08/29 00:19:22;;;;;;;6.55;5.95;;;14.30;98.50;;;;;;5020187;28;20227;-79
2021/08/29 00:21:48;;;;;;;6.15;4.80;;;14.40;98.50;;;;;;5019480;28;20217;-80
2021/08/29 00:24:15;;;;;;;7.72;5.82;;;14.30;98.50;;;;;;5029832;28;20216;-79
2021/08/29 00:26:42;;;;;;;6.30;5.70;;;14.30;98.40;;;;;;5024262;28;20311;-79
2021/08/29 00:29:10;;;;;;;6.78;5.22;;;14.30;98.50;;;;;;5019143;28;20263;-80
2021/08/29 00:31:37;;;;;;;5.93;5.35;;;14.20;98.90;;;;;;5019802;28;20629;-80
2021/08/29 00:34:04;;;;;;;5.75;5.25;;;14.20;99.10;;;;;;5020745;28;20212;-80
2021/08/29 00:36:31;;;;;;;6.60;5.75;;;14.20;99.60;;;;;;5020253;28;20235;-80
2021/08/29 00:38:58;;;;;;;6.75;5.38;;;14.20;99.90;;;;;;5013530;28;20212;-80
2021/08/29 00:41:25;;;;;;;7.55;5.90;;;14.20;99.90;;;;;;5032770;28;20626;-81
2021/08/29 00:43:52;;;;;;;7.40;6.53;;;14.20;99.90;;;;;;5037603;28;20210;-81
2021/08/29 00:46:20;;;;;;;7.32;6.50;;;14.10;99.90;;;;;;5017935;28;20232;-81
2021/08/29 00:48:49;;;;;;;8.40;5.45;;;14.10;99.90;;;;;;5016766;28;20230;-80
2021/08/29 00:51:16;;;;;;;7.10;6.30;;;14.10;99.90;;;;;;5029183;28;20753;-80
2021/08/29 00:53:47;;;;;;;8.13;5.82;;;14.00;99.90;;;;;;5028557;28;20227;-80
2021/08/29 00:56:14;;;;;;;6.40;5.70;;;14.10;99.90;;;;;;5027745;28;20226;-80
2021/08/29 00:58:43;;;;;;;7.03;6.32;;;14.10;99.90;;;;;;5030583;28;20341;-82
2021/08/29 01:01:11;;;;;;;7.57;6.88;;;14.10;99.90;;;;;;5013350;28;20263;-82
2021/08/29 01:03:40;;;;;;;7.70;6.85;;;14.10;99.90;;;;;;5017193;28;20187;-81
2021/08/29 01:06:16;;;;;;;8.18;7.25;;;14.10;99.90;;;;;;5033866;28;20239;-81
2021/08/29 01:08:44;;;;;;;7.93;6.10;;;14.10;99.90;;;;;;5028753;28;20192;-82
2021/08/29 01:11:14;;;;;;;8.23;6.82;;;14.20;99.90;;;;;;5028228;28;20242;-82
2021/08/29 01:13:45;;;;;;;8.40;7.35;;;14.20;99.90;;;;;;5030890;28;20200;-82
2021/08/29 01:16:16;;;;;;;10.15;6.50;;;14.20;99.90;;;;;;5030332;28;20238;-82
2021/08/29 01:18:48;;;;;;;7.63;6.57;;;14.20;99.90;;;;;;5036216;28;20172;-82
2021/08/29 01:21:18;;;;;;;10.52;7.00;;;14.20;99.90;;;;;;5021607;28;20231;-83
2021/08/29 01:23:47;;;;;;;7.45;6.75;;;14.20;99.90;;;;;;5022410;28;20223;-81
2021/08/29 01:26:19;;;;;;;7.50;6.45;;;14.10;99.90;;;;;;5023240;28;20753;-81
2021/08/29 01:28:58;;;;;;;8.23;6.10;;;14.10;99.90;;;;;;5030550;28;20184;-81
2021/08/29 01:31:27;;;;;;;7.53;6.75;;;14.10;99.90;;;;;;5027408;28;20313;-81
2021/08/29 01:33:55;;;;;;;9.57;7.25;;;14.00;99.90;;;;;;5027366;28;20242;-81
2021/08/29 01:36:23;;;;;;;10.68;7.35;;;14.00;99.90;;;;;;5007699;28;20220;-81
2021/08/29 01:38:51;;;;;;;10.48;7.40;;;14.00;99.90;;;;;;5007579;28;20220;-80
2021/08/29 01:41:20;;;;;;;8.45;7.60;;;14.00;99.90;;;;;;5009784;28;20231;-80
2021/08/29 01:43:48;;;;;;;8.77;7.88;;;14.00;99.90;;;;;;5009387;28;20242;-81
2021/08/29 01:46:18;;;;;;;8.45;7.63;;;14.00;99.90;;;;;;5009087;28;20262;-81
2021/08/29 01:48:46;;;;;;;9.27;7.43;;;14.00;99.90;;;;;;5007868;28;20215;-81
2021/08/29 01:51:13;;;;;;;8.20;7.38;;;14.00;99.90;;;;;;5008096;28;20258;-78
2021/08/29 01:53:41;;;;;;;8.65;7.75;;;14.00;99.90;;;;;;4999840;28;20234;-78
2021/08/29 01:56:08;;;;;;;8.15;7.35;;;14.00;99.90;;;;;;5014424;28;20231;-79
2021/08/29 01:58:35;;;;;;;9.10;7.55;;;14.00;99.90;;;;;;5011312;28;20637;-78
2021/08/29 02:01:06;;;;;;;8.73;7.82;;;14.00;99.90;;;;;;5007447;28;20271;-79
2021/08/29 02:03:34;;;;;;;8.90;8.00;;;14.00;99.90;;;;;;5018154;28;20206;-79
2021/08/29 02:06:09;;;;;;;9.43;8.40;;;14.00;99.90;;;;;;5018407;28;20586;-80
2021/08/29 02:08:39;;;;;;;9.05;8.00;;;14.00;99.90;;;;;;5017385;28;20261;-79
2021/08/29 02:11:07;;;;;;;10.13;8.48;;;14.00;99.90;;;;;;5013697;28;20334;-80
2021/08/29 02:13:36;;;;;;;10.15;8.95;;;14.00;99.90;;;;;;5002114;28;20735;-80
2021/08/29 02:16:07;;;;;;;11.73;9.30;;;13.90;99.90;;;;;;5006360;28;20240;-81
2021/08/29 02:18:36;;;;;;;11.13;8.52;;;14.00;99.90;;;;;;5008207;28;20203;-81
2021/08/29 02:21:03;;;;;;;10.02;7.88;;;14.00;99.90;;;;;;5025111;28;20206;-81
2021/08/29 02:23:31;;;;;;;11.07;8.40;;;14.00;99.90;;;;;;5027344;28;20223;-80
2021/08/29 02:25:58;;;;;;;9.65;8.35;;;14.00;99.90;;;;;;5033266;28;20273;-82
2021/08/29 02:28:27;;;;;;;10.07;8.70;;;13.90;99.90;;;;;;5019451;28;20200;-82
2021/08/29 02:30:55;;;;;;;10.73;8.20;;;13.90;99.90;;;;;;5018963;28;20185;-83
2021/08/29 02:33:23;;;;;;;9.55;8.57;;;13.80;99.90;;;;;;5018946;28;20877;-83
2021/08/29 02:35:52;;;;;;;9.35;8.35;;;13.90;99.90;;;;;;5005682;28;20255;-81
2021/08/29 02:38:20;;;;;;;14.68;9.50;;;13.90;99.90;;;;;;5000074;28;20299;-82
2021/08/29 02:40:49;;;;;;;9.55;8.63;;;13.90;99.90;;;;;;5003515;28;20347;-82
2021/08/29 02:43:16;;;;;;;9.77;8.50;;;13.90;99.90;;;;;;5001787;28;20230;-81
2021/08/29 02:45:45;;;;;;;10.18;9.15;;;13.90;99.90;;;;;;5000689;28;20307;-82
2021/08/29 02:48:12;;;;;;;12.02;9.32;;;13.90;99.90;;;;;;4999884;28;20771;-83
2021/08/29 02:50:40;;;;;;;13.48;8.90;;;13.80;99.90;;;;;;5010876;28;20217;-82
2021/08/29 02:53:09;;;;;;;12.20;9.38;;;13.80;99.90;;;;;;5015020;28;20235;-82
2021/08/29 02:55:38;;;;;;;13.00;10.32;;;13.80;99.90;;;;;;5000871;28;20255;-82
2021/08/29 02:58:08;;;;;;;13.20;9.40;;;13.80;99.90;;;;;;5000448;28;20211;-82
2021/08/29 03:00:36;;;;;;;13.23;10.45;;;13.80;99.90;;;;;;5000145;28;20213;-81
2021/08/29 03:03:03;;;;;;;15.40;11.23;;;13.80;99.90;;;;;;5001681;28;20208;-82
2021/08/29 03:05:31;;;;;;;14.27;11.07;;;13.80;99.90;;;;;;5002260;28;20317;-81
2021/08/29 03:07:58;;;;;;;14.00;11.05;;;13.80;99.90;;;;;;5012967;28;20200;-82
2021/08/29 03:10:27;;;;;;;15.50;12.18;;;13.80;99.90;;;;;;5022174;28;20305;-82
2021/08/29 03:12:54;;;;;;;15.02;12.07;;;13.80;99.90;;;;;;5013179;28;20287;-83
2021/08/29 03:15:21;;;;;;;17.17;11.57;;;13.80;99.90;;;;;;5006260;28;20242;-82
2021/08/29 03:17:48;;;;;;;15.20;12.02;;;13.80;99.90;;;;;;5024408;28;20203;-84
2021/08/29 03:20:16;;;;;;;16.73;13.20;;;13.80;99.90;;;;;;5037818;28;20204;-82
2021/08/29 03:22:44;;;;;;;16.52;11.75;;;13.80;99.90;;;;;;5038070;28;20183;-84
2021/08/29 03:25:12;;;;;;;15.38;11.90;;;13.80;99.90;;;;;;5030550;28;20227;-82
2021/08/29 03:27:41;;;;;;;17.27;11.95;;;13.80;99.90;;;;;;5021174;28;20234;-83
2021/08/29 03:30:09;;;;;;;17.77;12.90;;;13.80;99.90;;;;;;5021732;28;20245;-81
2021/08/29 03:32:36;;;;;;;17.17;12.55;;;13.80;99.90;;;;;;5023105;28;20295;-82
2021/08/29 03:35:04;;;;;;;15.40;12.27;;;13.80;99.90;;;;;;5023533;28;20245;-82
2021/08/29 03:37:32;;;;;;;19.27;13.50;;;13.80;99.90;;;;;;5022535;28;20238;-83
2021/08/29 03:40:01;;;;;;;12.52;10.70;;;13.90;99.90;;;;;;5032694;28;20211;-83
2021/08/29 03:42:31;;;;;;;17.10;11.80;;;13.90;99.90;;;;;;5031073;28;20214;-83
2021/08/29 03:45:00;;;;;;;14.32;10.85;;;13.90;99.90;;;;;;5016330;28;20218;-82
2021/08/29 03:47:28;;;;;;;13.38;9.38;;;13.90;99.90;;;;;;5026469;28;20207;-84
2021/08/29 03:49:55;;;;;;;12.93;9.63;;;13.90;99.90;;;;;;5037640;28;20240;-85
2021/08/29 03:52:23;;;;;;;10.40;9.30;;;13.90;99.90;;;;;;5029138;28;20223;-82
2021/08/29 03:54:50;;;;;;;11.35;8.23;;;14.00;99.90;;;;;;5016883;28;20219;-83
2021/08/29 03:57:17;;;;;;;10.23;7.80;;;14.00;99.90;;;;;;5017992;28;20220;-83
2021/08/29 03:59:45;;;;;;;9.45;7.35;;;14.00;99.90;;;;;;5019280;28;20190;-82
2021/08/29 04:02:14;;;;;;;9.88;8.23;;;14.00;99.90;;;;;;5016994;28;20192;-81
2021/08/29 04:04:41;;;;;;;8.80;7.20;;;14.00;99.90;;;;;;5020562;28;20192;-81
2021/08/29 04:07:10;;;;;;;9.23;7.80;;;14.10;99.90;;;;;;5035032;28;20218;-82
2021/08/29 04:09:37;;;;;;;9.25;7.07;;;14.10;99.90;;;;;;5017759;28;20192;-82
2021/08/29 04:12:06;;;;;;;13.95;7.88;;;14.10;99.90;;;;;;5035277;28;20227;-82
2021/08/29 04:14:33;;;;;;;9.85;7.82;;;14.10;99.90;;;;;;5036711;28;20210;-82
2021/08/29 04:17:00;;;;;;;11.10;8.80;;;14.10;99.90;;;;;;5073169;23;20257;-84
2021/08/29 04:19:29;;;;;;;9.88;8.88;;;14.10;99.90;;;;;;5039989;28;20191;-83
2021/08/29 04:21:57;;;;;;;12.93;8.60;;;14.10;99.90;;;;;;5038215;28;20220;-84
2021/08/29 04:24:24;;;;;;;9.88;8.80;;;14.00;99.90;;;;;;5036987;28;20203;-84
2021/08/29 04:26:51;;;;;;;9.07;7.80;;;14.10;99.90;;;;;;5033494;28;20269;-84
2021/08/29 04:29:19;;;;;;;8.18;6.78;;;14.10;99.90;;;;;;5024454;28;20242;-84
2021/08/29 04:31:51;;;;;;;8.40;7.35;;;14.10;99.90;;;;;;5023172;28;20673;-84
2021/08/29 04:34:18;;;;;;;7.80;7.00;;;14.10;99.90;;;;;;5023258;28;20695;-83
2021/08/29 04:36:47;;;;;;;6.75;5.93;;;14.10;99.90;;;;;;5024501;28;20281;-83
2021/08/29 04:39:14;;;;;;;8.32;7.43;;;14.10;99.90;;;;;;5028149;28;20233;-81
2021/08/29 04:41:41;;;;;;;9.90;5.85;;;14.20;99.90;;;;;;5030491;28;20203;-82
2021/08/29 04:44:10;;;;;;;7.10;6.40;;;14.20;99.90;;;;;;5032300;28;20254;-82
2021/08/29 04:46:37;;;;;;;7.40;6.30;;;14.20;99.90;;;;;;5028594;28;20257;-82
2021/08/29 04:49:04;;;;;;;6.65;6.00;;;14.20;99.90;;;;;;5031056;28;20231;-82
2021/08/29 04:51:31;;;;;;;7.78;6.47;;;14.20;99.90;;;;;;5035314;28;20191;-81
2021/08/29 04:54:00;;;;;;;6.65;5.93;;;14.20;99.90;;;;;;5032762;28;20689;-83
2021/08/29 04:56:27;;;;;;;6.38;5.78;;;14.20;99.90;;;;;;5025128;28;20285;-82
2021/08/29 04:58:54;;;;;;;7.35;5.80;;;14.20;99.90;;;;;;5019987;28;20319;-83
2021/08/29 05:01:21;;;;;;;6.53;5.80;;;14.30;99.90;;;;;;5019992;28;20768;-81
2021/08/29 05:03:48;;;;;;;6.05;5.45;;;14.30;99.90;;;;;;5020461;28;20273;-81
2021/08/29 05:06:15;;;;;;;6.60;5.55;;;14.20;99.90;;;;;;5024206;28;20290;-84
2021/08/29 05:08:42;;;;;;;5.97;5.38;;;14.20;99.90;;;;;;5023860;28;20207;-82
2021/08/29 05:11:11;;;;;;;6.43;5.85;;;14.30;99.90;;;;;;5020960;28;20211;-84
2021/08/29 05:13:38;;;;;;;7.93;6.35;;;14.30;99.90;;;;;;5022460;28;20266;-83
2021/08/29 05:16:05;;;;;;;6.47;5.80;;;14.30;99.90;;;;;;5019753;28;20279;-82
2021/08/29 05:18:32;;;;;;;9.55;7.60;;;14.30;99.90;;;;;;5019623;28;20630;-83
2021/08/29 05:20:59;;;;;;;8.50;7.65;;;14.30;99.90;;;;;;5019513;28;20238;-82
2021/08/29 05:23:26;;;;;;;9.05;8.13;;;14.40;99.90;;;;;;5021229;28;20246;-83
2021/08/29 05:25:53;;;;;;;7.93;6.95;;;14.30;99.90;;;;;;5026127;28;20254;-82
2021/08/29 05:28:22;;;;;;;7.85;6.97;;;14.30;99.90;;;;;;5035703;28;20214;-85
2021/08/29 05:30:49;;;;;;;10.35;7.60;;;14.30;99.90;;;;;;5035393;28;20243;-84
2021/08/29 05:33:16;;;;;;;7.70;6.60;;;14.30;99.90;;;;;;5022880;28;20729;-82
2021/08/29 05:35:43;;;;;;;8.02;7.22;;;14.30;99.90;;;;;;5021787;28;20679;-84
2021/08/29 05:38:10;;;;;;;7.57;5.97;;;14.30;99.90;;;;;;5019559;28;20662;-82
2021/08/29 05:40:37;;;;;;;7.00;6.10;;;14.30;99.90;;;;;;5022547;28;20270;-83
2021/08/29 05:43:04;;;;;;;5.93;5.10;;;14.30;99.90;;;;;;5022315;28;20239;-84
2021/08/29 05:45:32;;;;;;;6.30;5.70;;;14.40;99.90;;;;;;5026001;28;20203;-83
2021/08/29 05:47:59;;;;;;;8.23;4.95;;;14.40;99.90;;;;;;5035404;28;20214;-82
2021/08/29 05:50:26;;;;;;;4.50;4.10;;;14.30;99.90;;;;;;5028942;28;20215;-82
2021/08/29 05:52:53;;;;;;;5.25;4.22;;;14.40;99.90;;;;;;5022014;28;20242;-82
2021/08/29 05:55:20;;;;;;;4.80;3.83;;;14.40;99.90;;;;;;5021773;28;20207;-82
2021/08/29 05:57:47;;;;;;;4.43;4.03;;;14.40;99.90;;;;;;5026114;28;20229;-82
2021/08/29 06:00:14;;;;;;;4.35;3.90;;;14.40;99.90;;;;;;5028535;28;20237;-82
2021/08/29 06:02:43;;;;;;;4.47;3.85;;;14.50;99.90;;;;;;5022867;28;20231;-83
2021/08/29 06:05:10;;;;;;;4.05;3.75;;;14.50;99.90;;;;;;5032751;28;20207;-81
2021/08/29 06:07:37;;;;;;;5.97;4.07;;;14.60;99.90;;;;;;5030555;28;20259;-84
2021/08/29 06:10:04;;;;;;;4.43;4.05;;;14.60;99.90;;;;;;5019682;28;20689;-83
2021/08/29 06:12:31;;;;;;;4.50;4.05;;;14.60;99.90;;;;;;5019286;28;20309;-83
2021/08/29 06:14:58;;;;;;;5.40;3.95;;;14.70;99.90;;;;;;5019873;28;20297;-83
2021/08/29 06:17:25;;;;;;;6.30;3.50;;;14.80;99.90;;;;;;5018685;28;20322;-82
2021/08/29 06:19:53;;;;;;;4.20;3.80;;;14.90;99.90;;;;;;5016547;28;20667;-83
2021/08/29 06:22:20;;;;;;;4.18;3.38;;;15.00;99.90;;;;;;5017284;28;20212;-84
2021/08/29 06:24:47;;;;;;;3.80;3.50;;;15.10;99.90;;;;;;5015841;28;20758;-82
2021/08/29 06:27:14;;;;;;;3.22;3.03;;;15.20;99.90;;;;;;5028534;28;20270;-84
2021/08/29 06:29:41;;;;;;;3.90;2.95;;;15.20;99.90;;;;;;5035031;28;20222;-84
2021/08/29 06:32:09;;;;;;;4.50;2.50;;;15.20;99.90;;;;;;5027883;28;20211;-86
2021/08/29 06:34:36;;;;;;;3.63;3.38;;;15.10;99.90;;;;;;5037597;28;20187;-87
2021/08/29 06:37:04;;;;;;;3.40;2.97;;;15.20;99.90;;;;;;5026604;28;20730;-82
2021/08/29 06:39:31;;;;;;;3.65;3.05;;;15.10;99.90;;;;;;5020679;28;20337;-86
2021/08/29 06:41:58;;;;;;;3.38;3.10;;;15.20;99.90;;;;;;5021446;28;20231;-84
2021/08/29 06:44:25;;;;;;;3.10;2.80;;;15.20;99.90;;;;;;5024616;28;20668;-86
2021/08/29 06:46:52;;;;;;;3.60;2.55;;;15.30;99.90;;;;;;5022622;28;20255;-84
2021/08/29 06:49:19;;;;;;;3.15;2.95;;;15.30;99.90;;;;;;5026997;28;20233;-86
2021/08/29 06:51:46;;;;;;;2.15;2.05;;;15.30;99.90;;;;;;5037873;28;20211;-87
2021/08/29 06:54:15;;;;;;;2.30;2.20;;;15.20;99.90;;;;;;5037467;28;20259;-86
2021/08/29 06:56:43;;;;;;;3.03;2.58;;;15.30;99.90;;;;;;5037843;28;20255;-85
2021/08/29 06:59:10;;;;;;;2.90;2.70;;;15.30;99.90;;;;;;5024416;28;20247;-82
2021/08/29 07:01:37;;;;;;;2.95;2.65;;;15.30;99.90;;;;;;5031059;28;20580;-85
2021/08/29 07:04:04;;;;;;;2.60;2.40;;;15.20;99.90;;;;;;5021743;28;20220;-80
2021/08/29 07:06:31;;;;;;;2.45;2.25;;;15.20;99.90;;;;;;5023416;28;20236;-81
2021/08/29 07:08:58;;;;;;;3.80;2.65;;;15.20;99.90;;;;;;5025231;28;20758;-83
2021/08/29 07:11:26;;;;;;;2.67;2.47;;;15.20;99.90;;;;;;5028646;28;20238;-84
2021/08/29 07:13:53;;;;;;;2.58;2.38;;;15.30;99.90;;;;;;5046179;28;20219;-87
2021/08/29 07:16:20;;;;;;;2.60;2.40;;;15.30;99.90;;;;;;5037389;28;20216;-86
2021/08/29 07:18:47;;;;;;;2.25;2.15;;;15.40;99.90;;;;;;5036866;28;20200;-85
2021/08/29 07:21:14;;;;;;;2.60;2.42;;;15.40;99.90;;;;;;5036232;28;20207;-84
2021/08/29 07:23:41;;;;;;;2.70;2.28;;;15.50;99.90;;;;;;5033677;28;20208;-81
2021/08/29 07:26:13;;;;;;;2.50;2.30;;;15.50;99.90;;;;;;5032883;28;20239;-82
2021/08/29 07:28:42;;;;;;;3.13;2.58;;;15.50;99.90;;;;;;5030662;28;20211;-80
2021/08/29 07:31:09;;;;;;;2.97;2.65;;;15.50;99.90;;;;;;5026946;28;20215;-84
2021/08/29 07:33:35;;;;;;;2.37;2.17;;;15.60;99.90;;;;;;5024881;28;20235;-83
2021/08/29 07:36:03;;;;;;;2.67;2.47;;;15.60;99.90;;;;;;5031140;28;20541;-87
2021/08/29 07:38:29;;;;;;;4.18;2.58;;;15.60;99.90;;;;;;5030855;28;20200;-85
2021/08/29 07:40:56;;;;;;;2.70;2.50;;;15.60;99.90;;;;;;5038911;28;20215;-86
2021/08/29 07:43:23;;;;;;;2.00;1.90;;;15.70;99.90;;;;;;5037311;28;20238;-86
2021/08/29 07:45:52;;;;;;;2.27;2.07;;;15.80;99.90;;;;;;5037168;28;20232;-87
2021/08/29 07:48:19;;;;;;;2.60;2.40;;;15.90;99.90;;;;;;5025073;28;20455;-80
2021/08/29 07:50:45;;;;;;;2.50;2.30;;;15.80;99.90;;;;;;5020448;28;20223;-82
2021/08/29 07:53:13;;;;;;;4.35;2.72;;;15.80;99.90;;;;;;5023584;28;20756;-82
2021/08/29 07:55:40;;;;;;;3.90;2.30;;;15.90;99.90;;;;;;5025855;28;20570;-80
2021/08/29 07:58:06;;;;;;;2.25;2.13;;;15.80;99.90;;;;;;5024195;28;20226;-83
2021/08/29 08:00:33;;;;;;;2.25;2.15;;;15.80;99.90;;;;;;5032592;28;20239;-83
2021/08/29 08:03:02;;;;;;;2.40;2.20;;;15.80;99.90;;;;;;5024206;28;20212;-81
2021/08/29 08:05:29;;;;;;;2.90;2.63;;;15.90;99.90;;;;;;5037927;28;20462;-81
2021/08/29 08:07:56;;;;;;;2.97;2.35;;;16.00;99.90;;;;;;5023921;28;20205;-81
2021/08/29 08:10:25;;;;;;;2.60;2.40;;;16.00;99.90;;;;;;5022673;28;20239;-82
2021/08/29 08:12:52;;;;;;;3.47;2.30;;;16.10;99.90;;;;;;5017609;28;20609;-82
2021/08/29 08:15:19;;;;;;;2.43;2.30;;;16.10;99.90;;;;;;5033337;28;20494;-80
2021/08/29 08:17:47;;;;;;;2.33;2.13;;;16.20;99.90;;;;;;5031144;28;20483;-81
2021/08/29 08:20:16;;;;;;;2.17;2.07;;;16.20;99.90;;;;;;5029771;28;20235;-82
2021/08/29 08:22:44;;;;;;;2.03;1.93;;;16.30;99.90;;;;;;5030716;28;20542;-82
2021/08/29 08:25:11;;;;;;;2.13;1.93;;;16.40;99.30;;;;;;5036763;28;20451;-82
2021/08/29 08:27:38;;;;;;;2.90;1.87;;;16.40;98.60;;;;;;5027759;28;20510;-82
2021/08/29 08:30:06;;;;;;;1.92;1.83;;;16.40;98.20;;;;;;5022004;28;20465;-80
2021/08/29 08:32:33;;;;;;;2.30;2.20;;;16.50;97.50;;;;;;5021414;28;20205;-82
2021/08/29 08:35:00;;;;;;;1.80;1.70;;;16.60;95.80;;;;;;5021465;28;20906;-80
2021/08/29 08:37:29;;;;;;;3.23;2.00;;;16.70;95.90;;;;;;5020043;28;20561;-83
2021/08/29 08:39:56;;;;;;;1.90;1.80;;;16.70;94.50;;;;;;5020174;28;20494;-83
2021/08/29 08:42:23;;;;;;;1.90;1.80;;;16.70;96.00;;;;;;5015027;28;20524;-82
2021/08/29 08:44:49;;;;;;;2.63;2.43;;;16.70;95.90;;;;;;5002945;28;20462;-82
2021/08/29 08:47:19;;;;;;;1.80;1.70;;;16.60;94.40;;;;;;5004985;28;20452;-83
2021/08/29 08:49:47;;;;;;;2.03;1.93;;;16.80;94.30;;;;;;5021360;28;20431;-85
2021/08/29 08:52:17;;;;;;;1.93;1.83;;;16.80;93.30;;;;;;5039092;28;20483;-82
2021/08/29 08:54:48;;;;;;;1.77;1.67;;;17.00;92.20;;;;;;5037593;28;20439;-85
2021/08/29 08:57:18;;;;;;;2.53;2.30;;;16.90;92.80;;;;;;5040285;28;20448;-85
2021/08/29 08:59:45;;;;;;;1.70;1.60;;;17.10;90.50;;;;;;5035618;28;20423;-83
2021/08/29 09:02:13;;;;;;;2.00;1.90;;;17.30;89.70;;;;;;5027370;28;20480;-82
2021/08/29 09:04:40;;;;;;;1.80;1.70;;;17.60;90.00;;;;;;5023071;28;20484;-81
2021/08/29 09:07:08;;;;;;;1.90;1.80;;;17.60;88.50;;;;;;5029953;28;20441;-81
2021/08/29 09:09:35;;;;;;;1.73;1.63;;;17.50;85.20;;;;;;5028089;28;20453;-82
2021/08/29 09:12:04;;;;;;;2.30;2.20;;;17.00;91.50;;;;;;5029416;28;20411;-83
2021/08/29 09:14:44;;;;;;;2.70;2.50;;;17.00;94.20;;;;;;5027172;28;20495;-82
2021/08/29 09:17:25;;;;;;;1.70;1.60;;;17.40;93.40;;;;;;5024402;28;20561;-82
2021/08/29 09:20:12;;;;;;;2.03;1.93;;;17.40;92.20;;;;;;5031897;28;20458;-82
2021/08/29 09:22:40;;;;;;;2.10;2.00;;;17.80;90.80;;;;;;5034489;28;20467;-82
2021/08/29 09:25:12;;;;;;;2.43;2.23;;;18.00;85.90;;;;;;5046307;28;20466;-83
2021/08/29 09:27:43;;;;;;;2.30;2.20;;;18.10;83.70;;;;;;5041285;28;20481;-83
2021/08/29 09:30:12;;;;;;;2.00;1.90;;;17.50;88.40;;;;;;5042492;28;20835;-82
2021/08/29 09:32:47;;;;;;;2.03;1.87;;;17.50;88.80;;;;;;5026738;28;20494;-81
2021/08/29 09:35:14;;;;;;;1.80;1.70;;;17.50;84.60;;;;;;5023440;28;20489;-82
2021/08/29 09:37:41;;;;;;;1.97;1.80;;;17.70;89.10;;;;;;5024210;28;20475;-80
2021/08/29 09:40:16;;;;;;;1.83;1.73;;;18.20;86.90;;;;;;5034328;28;20479;-80
2021/08/29 09:42:45;;;;;;;2.23;1.80;;;18.30;81.20;;;;;;5034811;28;20469;-82
2021/08/29 09:45:27;;;;;;;2.33;2.13;;;18.20;80.80;;;;;;5026169;28;20496;-81
2021/08/29 09:47:58;;;;;;;2.43;2.10;;;18.10;79.30;;;;;;5021998;28;20536;-82
2021/08/29 09:50:26;;;;;;;2.80;2.60;;;17.80;83.40;;;;;;5021030;28;20967;-82
2021/08/29 09:53:04;;;;;;;5.03;2.87;;;17.70;85.30;;;;;;5022310;28;20477;-81
2021/08/29 09:55:34;;;;;;;3.10;2.43;;;17.60;84.40;;;;;;5035721;28;20468;-81
2021/08/29 09:58:20;;;;;;;2.50;2.30;;;17.50;84.90;;;;;;5037902;28;20467;-80
2021/08/29 10:01:02;;;;;;;2.30;2.13;;;17.40;89.60;;;;;;5034696;28;20438;-81
2021/08/29 10:03:29;;;;;;;3.10;2.80;;;17.30;90.50;;;;;;5028780;28;20460;-80
2021/08/29 10:06:29;;;;;;;2.60;2.10;;;17.40;90.60;;;;;;5024332;28;20856;-81
2021/08/29 10:08:58;;;;;;;3.40;3.10;;;17.20;90.50;;;;;;5018535;28;20576;-82
2021/08/29 10:11:26;;;;;;;3.00;2.53;;;17.20;91.90;;;;;;5034025;28;20462;-82
2021/08/29 10:13:57;;;;;;;6.63;3.50;;;17.00;91.40;;;;;;5035545;28;20491;-81
2021/08/29 10:16:26;;;;;;;3.47;3.20;;;16.70;94.40;;;;;;5044427;22;20973;-75
2021/08/29 10:18:55;;;;;;;3.57;3.27;;;16.70;97.30;;;;;;5012946;28;20819;-75
2021/08/29 10:21:24;;;;;;;4.60;3.30;;;16.70;97.20;;;;;;5013414;28;20447;-76
2021/08/29 10:23:53;;;;;;;3.33;3.10;;;16.70;97.70;;;;;;5013753;28;20443;-76
2021/08/29 10:26:22;;;;;;;3.63;3.40;;;16.80;97.70;;;;;;5013117;28;20566;-75
2021/08/29 10:28:53;;;;;;;3.80;3.50;;;16.70;97.40;;;;;;5014080;28;20542;-74
2021/08/29 10:31:29;;;;;;;3.90;3.60;;;16.70;97.60;;;;;;5014273;28;20525;-73
2021/08/29 10:33:56;;;;;;;3.57;3.27;;;16.60;98.10;;;;;;5014298;28;20896;-75
2021/08/29 10:36:24;;;;;;;3.50;3.27;;;16.50;98.90;;;;;;5014090;28;20502;-75
2021/08/29 10:38:51;;;;;;;4.03;3.40;;;16.50;99.40;;;;;;5013926;28;20549;-76
2021/08/29 10:41:21;;;;;;;4.83;3.60;;;16.60;99.60;;;;;;5014202;28;20470;-75
2021/08/29 10:43:49;;;;;;;4.80;4.40;;;16.60;98.60;;;;;;5013500;28;20908;-76
2021/08/29 10:46:17;;;;;;;4.13;3.73;;;16.50;99.20;;;;;;5014623;28;20485;-76
2021/08/29 10:48:48;;;;;;;4.50;4.10;;;16.50;99.90;;;;;;5012963;28;20521;-75
2021/08/29 10:51:18;;;;;;;4.73;4.33;;;16.40;99.90;;;;;;5013434;28;20489;-76
2021/08/29 10:53:50;;;;;;;5.10;4.63;;;16.40;99.90;;;;;;5013529;28;20516;-76
2021/08/29 10:56:33;;;;;;;5.33;4.83;;;16.30;99.90;;;;;;5013835;28;20490;-76
2021/08/29 10:59:30;;;;;;;4.35;3.95;;;16.20;99.90;;;;;;5014106;28;20533;-76
2021/08/29 11:02:15;;;;;;;4.70;4.27;;;16.00;99.90;;;;;;4992553;28;20248;-76
2021/08/29 11:04:48;;;;;;;6.07;5.10;;;15.80;99.90;;;;;;5011953;28;20489;-76
2021/08/29 11:07:47;;;;;;;5.57;5.07;;;15.70;99.90;;;;;;5014883;28;20478;-77
2021/08/29 11:10:47;;;;;;;5.70;5.20;;;15.70;99.90;;;;;;5013954;28;20541;-77
2021/08/29 11:13:39;;;;;;;5.28;4.78;;;15.70;99.90;;;;;;5014563;28;20494;-78
2021/08/29 11:16:23;;;;;;;4.85;4.13;;;15.60;99.90;;;;;;5018179;28;20227;-77
2021/08/29 11:19:09;;;;;;;5.43;4.45;;;15.70;99.90;;;;;;5015184;28;20698;-77
2021/08/29 11:22:09;;;;;;;5.70;5.20;;;15.60;99.90;;;;;;5024127;28;20270;-78
2021/08/29 11:25:01;;;;;;;5.80;4.70;;;15.70;99.90;;;;;;5037195;28;20207;-76
2021/08/29 11:27:58;;;;;;;5.27;4.77;;;15.80;99.90;;;;;;5043536;28;20494;-77
2021/08/29 11:30:28;;;;;;;5.63;5.13;;;16.00;99.90;;;;;;5030721;28;20557;-76
2021/08/29 11:33:01;;;;;;;6.33;5.73;;;15.80;99.90;;;;;;5030565;28;20466;-76
2021/08/29 11:35:30;;;;;;;6.20;5.30;;;15.70;99.90;;;;;;5034174;28;20534;-77
2021/08/29 11:38:09;;;;;;;6.90;6.17;;;15.80;99.90;;;;;;5033300;28;20473;-77
2021/08/29 11:41:02;;;;;;;6.33;5.70;;;16.00;99.90;;;;;;5021348;28;20454;-77
2021/08/29 11:43:35;;;;;;;7.00;5.50;;;16.00;99.90;;;;;;5007112;28;20462;-78
2021/08/29 11:46:10;;;;;;;8.10;4.80;;;15.90;99.90;;;;;;5023154;28;20443;-77
2021/08/29 11:48:38;;;;;;;6.35;5.43;;;15.80;99.90;;;;;;5022212;28;20195;-78
2021/08/29 11:51:05;;;;;;;5.95;5.35;;;15.90;99.90;;;;;;5047061;28;20203;-78
2021/08/29 11:53:47;;;;;;;6.03;5.45;;;15.90;99.90;;;;;;5037105;28;20206;-78
2021/08/29 11:56:17;;;;;;;7.60;5.60;;;15.90;99.90;;;;;;5034293;28;20235;-76
2021/08/29 11:58:46;;;;;;;9.20;5.50;;;15.90;99.90;;;;;;5014026;28;20455;-79
2021/08/29 12:01:13;;;;;;;6.57;5.93;;;15.90;99.90;;;;;;5013450;28;20465;-76
2021/08/29 12:03:41;;;;;;;6.80;5.77;;;15.80;99.90;;;;;;5025722;28;20204;-76
2021/08/29 12:06:15;;;;;;;6.90;6.22;;;15.90;99.90;;;;;;5036762;28;20463;-77
2021/08/29 12:09:11;;;;;;;6.80;5.93;;;15.90;99.90;;;;;;5038332;28;20226;-77
2021/08/29 12:11:42;;;;;;;7.83;7.03;;;16.00;99.90;;;;;;5009028;28;20471;-76
2021/08/29 12:14:16;;;;;;;7.07;6.13;;;16.10;99.90;;;;;;5016047;28;20436;-79
2021/08/29 12:16:54;;;;;;;6.88;6.00;;;16.10;99.90;;;;;;5037908;28;20219;-77
2021/08/29 12:19:24;;;;;;;7.30;6.60;;;16.20;99.90;;;;;;5033260;28;20215;-77
2021/08/29 12:21:51;;;;;;;6.78;5.70;;;16.20;99.90;;;;;;5015795;28;20555;-75
2021/08/29 12:24:25;;;;;;;7.83;6.77;;;16.20;99.90;;;;;;5021374;28;20201;-77
2021/08/29 12:27:01;;;;;;;7.47;6.55;;;16.30;99.90;;;;;;5019889;28;20466;-75
2021/08/29 12:29:28;;;;;;;7.68;6.72;;;16.30;99.90;;;;;;5018215;28;20242;-77
2021/08/29 12:32:06;;;;;;;8.02;5.97;;;16.30;99.90;;;;;;5018197;28;20231;-76
2021/08/29 12:34:33;;;;;;;6.60;6.00;;;16.30;99.90;;;;;;5016002;28;20668;-76
2021/08/29 12:37:04;;;;;;;7.05;6.40;;;16.30;99.90;;;;;;5018385;28;20254;-76
2021/08/29 12:39:31;;;;;;;11.30;7.88;;;16.20;99.20;;;;;;5016731;28;20308;-75
2021/08/29 12:42:15;;;;;;;7.63;6.60;;;16.20;99.20;;;;;;5011843;28;20221;-76
2021/08/29 12:44:42;;;;;;;7.00;6.30;;;16.20;99.50;;;;;;5038476;28;20548;-75
2021/08/29 12:47:10;;;;;;;9.38;7.70;;;16.20;99.30;;;;;;5029136;28;20259;-77
2021/08/29 12:49:38;;;;;;;8.17;7.37;;;16.20;99.20;;;;;;5025487;28;20236;-77
2021/08/29 12:52:08;;;;;;;7.93;7.13;;;16.20;99.20;;;;;;5027547;28;20490;-76
2021/08/29 12:54:35;;;;;;;10.55;7.57;;;16.20;99.20;;;;;;5025969;28;20223;-76
2021/08/29 12:57:05;;;;;;;8.63;7.27;;;16.20;99.20;;;;;;5025062;28;20259;-76
2021/08/29 12:59:34;;;;;;;7.87;6.90;;;16.20;99.20;;;;;;5028216;28;20455;-75